| time (UTC) | temp F | wind direction | speed MPH | gust MPH | rain 1hr in | rain 24hr in | rain mn in | humidity % | barometer mb |
| 20260902140013 | 75 | 123 | 0.0 | 3.0 | 0.00 | 1.26 | 0.98 | 96 | 1017.7 |
| 20260902134542 | 75 | 123 | 0.0 | 1.0 | 0.00 | 1.26 | 0.98 | 96 | 1017.7 |
| 20260902133015 | 75 | 102 | 0.0 | 2.0 | 0.00 | 1.26 | 0.98 | 96 | 1017.3 |
| 20260902131545 | 75 | 120 | 0.0 | 2.0 | 0.00 | 1.26 | 0.98 | 96 | 1017.1 |
| 20260902130013 | 75 | 119 | 0.0 | 3.0 | 0.00 | 1.26 | 0.98 | 96 | 1017.0 |
| 20260902124535 | 74 | 111 | 0.0 | 0.0 | 0.00 | 1.26 | 0.98 | 96 | 1017.1 |
| 20260902123047 | 74 | 101 | 0.0 | 0.0 | 0.00 | 1.26 | 0.98 | 96 | 1017.1 |
| 20260902121559 | 74 | 245 | 0.0 | 0.0 | 0.00 | 1.26 | 0.98 | 96 | 1017.1 |
| 20260902120017 | 73 | 245 | 0.0 | 0.0 | 0.00 | 1.26 | 0.98 | 96 | 1017.2 |
| 20260902114555 | 73 | 245 | 0.0 | 0.0 | 0.00 | 1.26 | 0.98 | 96 | 1017.0 |
| 20260902113039 | 72 | 245 | 0.0 | 0.0 | 0.00 | 1.26 | 0.98 | 96 | 1017.0 |
| 20260902111606 | 72 | 245 | 0.0 | 0.0 | 0.00 | 1.26 | 0.98 | 96 | 1017.0 |
| 20260902111501 | 72 | 245 | 0.0 | 0.0 | 0.00 | 1.26 | 0.98 | 96 | 1017.0 |
| 20260902110044 | 71 | 245 | 0.0 | 0.0 | 0.00 | 1.26 | 0.98 | 96 | 1016.8 |
| 20260902104503 | 71 | 245 | 0.0 | 0.0 | 0.00 | 1.26 | 0.98 | 96 | 1016.7 |
| 20260902103026 | 71 | 245 | 0.0 | 0.0 | 0.00 | 1.26 | 0.98 | 96 | 1016.4 |
| 20260902101505 | 71 | 245 | 0.0 | 0.0 | 0.00 | 1.26 | 0.98 | 96 | 1016.3 |
| 20260902100045 | 71 | 245 | 0.0 | 0.0 | 0.00 | 1.26 | 0.98 | 96 | 1016.2 |
| 20260902094513 | 71 | 245 | 0.0 | 0.0 | 0.00 | 1.26 | 0.98 | 96 | 1016.2 |
| 20260902093028 | 72 | 245 | 0.0 | 0.0 | 0.00 | 1.26 | 0.98 | 96 | 1016.1 |
| 20260902091511 | 72 | 127 | 0.0 | 0.0 | 0.00 | 1.26 | 0.98 | 96 | 1015.9 |
| 20260902090045 | 72 | 203 | 0.0 | 0.0 | 0.00 | 1.26 | 0.98 | 96 | 1015.7 |
| 20260902084511 | 72 | 203 | 0.0 | 0.0 | 0.00 | 1.26 | 0.98 | 96 | 1015.5 |
| 20260902083046 | 72 | 203 | 0.0 | 0.0 | 0.00 | 1.26 | 0.98 | 96 | 1015.4 |
| 20260902081511 | 72 | 203 | 0.0 | 0.0 | 0.00 | 1.26 | 0.98 | 96 | 1015.1 |
| 20260902080025 | 72 | 120 | 0.0 | 0.0 | 0.00 | 1.26 | 0.98 | 96 | 1015.0 |
| 20260902074511 | 72 | 120 | 0.0 | 0.0 | 0.00 | 1.26 | 0.98 | 96 | 1014.8 |
| 20260902073049 | 72 | 120 | 0.0 | 0.0 | 0.00 | 1.26 | 0.98 | 96 | 1014.8 |
| 20260902071527 | 72 | 120 | 0.0 | 0.0 | 0.00 | 1.26 | 0.98 | 95 | 1015.0 |
| 20260902070059 | 72 | 120 | 0.0 | 0.0 | 0.00 | 1.26 | 0.98 | 95 | 1015.1 |
| 20260902070000 | 72 | 120 | 0.0 | 0.0 | 0.00 | 1.26 | 0.98 | 95 | 1015.0 |
| 20260902064527 | 72 | 283 | 0.0 | 0.0 | 0.00 | 1.26 | 0.98 | 95 | 1014.9 |
| 20260902063007 | 72 | 283 | 0.0 | 0.0 | 0.00 | 1.26 | 0.98 | 95 | 1015.0 |
| 20260902061531 | 72 | 283 | 0.0 | 0.0 | 0.01 | 1.26 | 0.98 | 95 | 1015.2 |
| 20260902060052 | 72 | 283 | 0.0 | 0.0 | 0.75 | 1.26 | 0.98 | 95 | 1015.2 |
| 20260902054525 | 72 | 283 | 0.0 | 0.0 | 0.96 | 1.26 | 0.98 | 95 | 1015.1 |
| 20260902053051 | 72 | 287 | 0.0 | 1.0 | 0.97 | 1.26 | 0.98 | 95 | 1015.2 |
| 20260902051519 | 72 | 290 | 0.0 | 3.0 | 0.96 | 1.24 | 0.97 | 94 | 1015.7 |
| 20260902044513 | 73 | 165 | 0.0 | 1.0 | 0.02 | 0.30 | 0.02 | 93 | 1016.4 |
| 20260902043046 | 72 | 116 | 0.0 | 1.0 | 0.02 | 0.28 | 0.01 | 93 | 1015.5 |
| 20260902041521 | 73 | 178 | 0.0 | 2.0 | 0.13 | 0.28 | 0.00 | 93 | 1015.6 |
| 20260902040059 | 73 | 115 | 0.0 | 7.0 | 0.28 | 0.28 | 0.00 | 93 | 1015.7 |
| 20260902034522 | 73 | 97 | 0.0 | 7.0 | 0.28 | 0.28 | 0.28 | 93 | 1015.3 |
| 20260902033058 | 73 | 120 | 0.0 | 1.0 | 0.27 | 0.27 | 0.27 | 91 | 1015.0 |
| 20260902031523 | 75 | 262 | 0.0 | 5.0 | 0.16 | 0.16 | 0.17 | 89 | 1016.0 |
| 20260902030057 | 78 | 270 | 1.0 | 6.0 | 0.00 | 0.00 | 0.00 | 81 | 1015.8 |
| 20260902024520 | 80 | 274 | 0.0 | 4.0 | 0.00 | 0.00 | 0.00 | 80 | 1014.9 |
| 20260902023101 | 80 | 274 | 0.0 | 0.0 | 0.00 | 0.00 | 0.00 | 84 | 1013.6 |
| 20260902021523 | 80 | 274 | 0.0 | 0.0 | 0.00 | 0.00 | 0.00 | 84 | 1013.6 |
| 20260902020049 | 80 | 274 | 0.0 | 0.0 | 0.00 | 0.00 | 0.00 | 84 | 1013.7 |
| 20260902014532 | 80 | 274 | 0.0 | 0.0 | 0.00 | 0.00 | 0.00 | 84 | 1013.3 |
| 20260902013048 | 80 | 274 | 0.0 | 0.0 | 0.00 | 0.00 | 0.00 | 85 | 1013.1 |
| 20260902011535 | 80 | 274 | 0.0 | 0.0 | 0.00 | 0.00 | 0.00 | 86 | 1012.9 |
| 20260902010047 | 80 | 274 | 0.0 | 0.0 | 0.00 | 0.00 | 0.00 | 85 | 1013.1 |
| 20260902004513 | 81 | 274 | 0.0 | 0.0 | 0.00 | 0.00 | 0.00 | 84 | 1013.1 |
| 20260902003047 | 81 | 274 | 0.0 | 0.0 | 0.00 | 0.00 | 0.00 | 83 | 1012.7 |
| 20260902001514 | 81 | 274 | 0.0 | 0.0 | 0.00 | 0.00 | 0.00 | 82 | 1012.3 |
| 20260902000047 | 82 | 274 | 0.0 | 0.0 | 0.00 | 0.00 | 0.00 | 81 | 1012.5 |
| 20260901234517 | 82 | 274 | 0.0 | 0.0 | 0.00 | 0.00 | 0.00 | 80 | 1012.8 |
| 20260901233037 | 83 | 274 | 0.0 | 0.0 | 0.00 | 0.00 | 0.00 | 80 | 1012.7 |
| 20260901231526 | 83 | 274 | 0.0 | 0.0 | 0.00 | 0.00 | 0.00 | 77 | 1012.8 |
| 20260901230105 | 84 | 274 | 0.0 | 0.0 | 0.00 | 0.00 | 0.00 | 75 | 1012.9 |
| 20260901224534 | 85 | 274 | 0.0 | 0.0 | 0.00 | 0.00 | 0.00 | 73 | 1012.8 |
| 20260901223053 | 86 | 274 | 0.0 | 0.0 | 0.00 | 0.00 | 0.00 | 70 | 1012.9 |
| 20260901221529 | 86 | 274 | 0.0 | 0.0 | 0.00 | 0.00 | 0.00 | 69 | 1013.0 |
| 20260901220126 | 86 | 274 | 0.0 | 0.0 | 0.00 | 0.00 | 0.00 | 69 | 1013.1 |
| 20260901220001 | 86 | 274 | 0.0 | 0.0 | 0.00 | 0.00 | 0.00 | 69 | 1013.0 |
| 20260901214530 | 86 | 274 | 0.0 | 0.0 | 0.00 | 0.00 | 0.00 | 67 | 1013.1 |
| 20260901213050 | 87 | 274 | 0.0 | 0.0 | 0.00 | 0.00 | 0.00 | 68 | 1013.1 |
| 20260901211533 | 87 | 274 | 0.0 | 0.0 | 0.00 | 0.00 | 0.00 | 66 | 1013.1 |
| 20260901210049 | 88 | 274 | 0.0 | 0.0 | 0.00 | 0.00 | 0.00 | 65 | 1013.0 |
| 20260901204528 | 89 | 274 | 0.0 | 1.0 | 0.00 | 0.00 | 0.00 | 64 | 1013.1 |
| 20260901203056 | 88 | 274 | 0.0 | 1.0 | 0.00 | 0.00 | 0.00 | 65 | 1013.2 |
| 20260901201543 | 88 | 274 | 0.0 | 3.0 | 0.00 | 0.00 | 0.00 | 68 | 1013.4 |
| 20260901200058 | 88 | 271 | 0.0 | 0.0 | 0.00 | 0.00 | 0.00 | 71 | 1013.6 |
| 20260901194523 | 88 | 271 | 0.0 | 0.0 | 0.00 | 0.00 | 0.00 | 69 | 1013.7 |
| 20260901193005 | 87 | 271 | 0.0 | 0.0 | 0.00 | 0.00 | 0.00 | 75 | 1013.9 |
| 20260901191525 | 86 | 271 | 0.0 | 0.0 | 0.00 | 0.00 | 0.00 | 76 | 1013.9 |
| 20260901190051 | 86 | 271 | 0.0 | 0.0 | 0.00 | 0.00 | 0.00 | 74 | 1013.8 |
| 20260901184558 | 88 | 271 | 0.0 | 0.0 | 0.00 | 0.00 | 0.00 | 72 | 1013.7 |
| 20260901183015 | 88 | 271 | 0.0 | 1.0 | 0.00 | 0.00 | 0.00 | 70 | 1014.1 |
| 20260901181559 | 88 | 271 | 0.0 | 0.0 | 0.00 | 0.00 | 0.00 | 70 | 1014.2 |
| 20260901180019 | 90 | 271 | 0.0 | 1.0 | 0.00 | 0.00 | 0.00 | 68 | 1014.2 |
| 20260901174559 | 91 | 270 | 0.0 | 2.0 | 0.00 | 0.00 | 0.00 | 62 | 1014.3 |
| 20260901173020 | 90 | 272 | 0.0 | 1.0 | 0.00 | 0.00 | 0.00 | 65 | 1014.3 |
| 20260901171544 | 90 | 274 | 0.0 | 2.0 | 0.00 | 0.00 | 0.00 | 65 | 1014.5 |
| 20260901170039 | 90 | 281 | 0.0 | 1.0 | 0.00 | 0.00 | 0.00 | 67 | 1014.5 |
| 20260901164603 | 90 | 267 | 0.0 | 1.0 | 0.00 | 0.00 | 0.00 | 67 | 1014.6 |
| 20260901163041 | 89 | 266 | 0.0 | 2.0 | 0.00 | 0.00 | 0.00 | 68 | 1014.8 |
| 20260901161614 | 87 | 266 | 0.0 | 1.0 | 0.00 | 0.00 | 0.00 | 70 | 1014.9 |
| 20260901161501 | 87 | 266 | 0.0 | 2.0 | 0.00 | 0.00 | 0.00 | 70 | 1015.0 |
| 20260901160042 | 87 | 266 | 0.0 | 2.0 | 0.00 | 0.00 | 0.00 | 69 | 1015.0 |
| 20260901154507 | 86 | 266 | 0.0 | 2.0 | 0.00 | 0.00 | 0.00 | 72 | 1015.1 |
| 20260901153027 | 86 | 265 | 0.0 | 1.0 | 0.00 | 0.00 | 0.00 | 72 | 1015.3 |
| 20260901151505 | 86 | 265 | 0.0 | 1.0 | 0.00 | 0.00 | 0.00 | 74 | 1015.3 |
| 20260901150028 | 86 | 265 | 0.0 | 2.0 | 0.00 | 0.00 | 0.00 | 71 | 1015.5 |
| 20260901144509 | 86 | 265 | 0.0 | 0.0 | 0.00 | 0.00 | 0.00 | 72 | 1015.5 |
| 20260901143027 | 85 | 266 | 0.0 | 0.0 | 0.00 | 0.00 | 0.00 | 72 | 1015.6 |
| 20260901141548 | 85 | 262 | 0.0 | 0.0 | 0.00 | 0.00 | 0.00 | 75 | 1015.6 |